METAR Data
IDs: Format: Raw Decoded Include TAF

Data at: 1927 UTC 14 Dec 2018

KGDJ 141915Z AUTO 31013G23KT 2SM DZ OVC013 07/05 A3005 RMK AO2 T00680047
KGDJ 141855Z AUTO 30013G22KT 4SM DZ OVC013 07/05 A3005 RMK AO2 T00690047
KGDJ 141835Z AUTO 31015G24KT 5SM DZ OVC013 07/04 A3006 RMK AO2 T00670044
KGDJ 141815Z AUTO 31015G23KT 10SM OVC011 07/04 A3007 RMK AO2 T00650040
KGDJ 141755Z AUTO 31014G21KT 10SM OVC011 07/04 A3007 RMK AO2 T00650042 10065 20050
KGDJ 141735Z AUTO 31015G24KT 10SM OVC011 06/04 A3008 RMK AO2 T00610038
KGDJ 141715Z AUTO 31016KT 10SM OVC011 06/04 A3009 RMK AO2 T00600040
KGDJ 141655Z AUTO 31014G18KT 10SM OVC011 06/04 A3008 RMK AO2 T00600040
KGDJ 141635Z AUTO 31016G20KT 10SM OVC011 06/04 A3008 RMK AO2 T00590039
KGDJ 141615Z AUTO 32015G18KT 10SM OVC011 06/04 A3008 RMK AO2 T00570040
KGDJ 141555Z AUTO 31012G19KT 10SM OVC011 06/04 A3007 RMK AO2 T00550038
KGDJ 141535Z AUTO 31014G18KT 5SM -DZ BKN009 OVC013 05/04 A3005 RMK AO2 T00530038
KGDJ 141515Z AUTO 31014G23KT 2 1/2SM RA OVC011 05/04 A3004 RMK AO2 T00520036
KGDJ 141455Z AUTO 31015G20KT 10SM OVC011 05/03 A3005 RMK AO2 LTG DSNT NE T00520033
KGDJ 141435Z AUTO 31014G23KT 10SM OVC013 05/03 A3005 RMK AO2 LTG DSNT NE T00520032
KGDJ 141415Z AUTO 31016G21KT 10SM OVC015 05/03 A3003 RMK AO2 T00520031
KGDJ 141355Z AUTO 31013KT 10SM OVC013 05/03 A3002 RMK AO2 T00520031
KGDJ 141335Z AUTO 31014G21KT 10SM OVC013 05/03 A3002 RMK AO2 T00510031
KGDJ 141315Z AUTO 32015G22KT 10SM OVC011 05/03 A3001 RMK AO2 T00500031
KGDJ 141255Z AUTO 31016G22KT 10SM OVC011 05/03 A3001 RMK AO2 LTG DSNT NE T00500032
KGDJ 141235Z AUTO 31016G23KT 10SM OVC011 05/03 A2999 RMK AO2 T00500033
KGDJ 141215Z AUTO 31016G22KT 10SM OVC011 05/03 A2998 RMK AO2 LTG DSNT NE T00500034
KGDJ 141155Z AUTO 31017G23KT 10SM OVC011 05/04 A2997 RMK AO2 LTG DSNT NE P0001 60015 70027 T00500035 10065 20050
KGDJ 141135Z AUTO 31016G22KT 10SM OVC011 05/04 A2996 RMK AO2 P0001 T00500035
KGDJ 141115Z AUTO 32018G23KT 7SM -RA OVC009 05/04 A2996 RMK AO2 P0001 T00500036
KGDJ 141055Z AUTO 31014KT 4SM -RA OVC009 05/04 A2996 RMK AO2 P0005 T00530040
KGDJ 141035Z AUTO 31015G20KT 2 1/2SM RA OVC009 06/04 A2996 RMK AO2 P0003 T00550041
KGDJ 141015Z AUTO 31015G23KT 2 1/2SM RA OVC009 06/04 A2995 RMK AO2 LTG DSNT NE P0002 T00550041
KGDJ 140955Z AUTO 31015G22KT 3SM +RA OVC011 06/04 A2994 RMK AO2 P0001 T00570043
KGDJ 140935Z AUTO 31017G24KT 5SM -RA OVC011 06/05 A2992 RMK AO2 T00600045
KGDJ 140915Z AUTO 32015G21KT 3SM DZ OVC008 06/05 A2992 RMK AO2 T00600046
KGDJ 140855Z AUTO 31014G20KT 2 1/2SM DZ OVC008 06/05 A2991 RMK AO2 60008 T00600047
KGDJ 140835Z AUTO 31015G21KT 2 1/2SM DZ OVC008 06/05 A2990 RMK AO2 T00600047
KGDJ 140815Z AUTO 31012KT 3SM -DZ OVC008 06/05 A2990 RMK AO2 T00610048
KGDJ 140755Z AUTO 30013G19KT 2 1/2SM RA OVC008 06/05 A2990 RMK AO2 P0002 T00630050
KGDJ 140735Z AUTO 31011G15KT 7SM -DZ BKN008 OVC016 07/05 A2989 RMK AO2 P0001 T00650052
KGDJ 140715Z AUTO 30013G17KT 4SM RA BKN008 OVC016 07/05 A2988 RMK AO2 P0001 T00650052
KGDJ 140655Z AUTO 31010G16KT 4SM RA BKN008 OVC016 07/05 A2988 RMK AO2 P0005 T00650051
KGDJ 140635Z AUTO 31013G17KT 7SM RA BKN008 OVC014 07/05 A2988 RMK AO2 P0002 T00650051
KGDJ 140615Z AUTO 31011G16KT 7SM -RA SCT008 OVC012 07/05 A2988 RMK AO2 P0001 T00650051
KGDJ 140555Z AUTO 31011KT 4SM RA SCT008 OVC014 07/05 A2987 RMK AO2 P0009 60011 T00650051 10077 20065 401660065
KGDJ 140535Z AUTO 31011G15KT 4SM RA OVC010 07/05 A2988 RMK AO2 P0006 T00650050
KGDJ 140515Z AUTO 31011KT 4SM RA OVC008 07/05 A2987 RMK AO2 P0001 T00650050
KGDJ 140455Z AUTO 30008G17KT 5SM DZ OVC010 07/05 A2986 RMK AO2 T00650050
KGDJ 140435Z AUTO 31011G18KT 7SM OVC012 07/05 A2985 RMK AO2 T00650050
KGDJ 140415Z AUTO 31011G16KT 7SM -DZ OVC012 07/05 A2985 RMK AO2 T00650050
KGDJ 140355Z AUTO 31011G16KT 5SM DZ BKN010 OVC014 07/05 A2984 RMK AO2 P0001 T00660052
KGDJ 140335Z AUTO 31012G16KT 3SM DZ BKN008 OVC014 07/05 A2984 RMK AO2 P0001 T00680054
KGDJ 140315Z AUTO 32011KT 3SM DZ OVC010 07/05 A2984 RMK AO2 T00690054
KGDJ 140255Z AUTO 32010KT 2 1/2SM DZ BKN010 OVC013 07/06 A2983 RMK AO2 P0001 60001 T00700055
KGDJ 140235Z AUTO 31009KT 4SM DZ OVC013 07/06 A2983 RMK AO2 LTG DSNT N P0001 T00700055
KGDJ 140215Z AUTO 31009KT 3SM DZ OVC013 07/05 A2984 RMK AO2 LTG DSNT N T00720053
KGDJ 140155Z AUTO 31011G15KT 5SM DZ OVC015 08/05 A2983 RMK AO2 T00750052
KGDJ 140135Z AUTO 31009G16KT 10SM -DZ OVC013 08/05 A2982 RMK AO2 T00770052
KGDJ 140115Z AUTO 32010KT 10SM OVC013 08/06 A2982 RMK AO2 T00770055
KGDJ 140055Z AUTO 31007KT 10SM OVC013 08/06 A2981 RMK AO2 LTG DSNT NW T00770055
KGDJ 140035Z AUTO 32006KT 10SM OVC013 08/06 A2980 RMK AO2 T00770055
KGDJ 140015Z AUTO 31006KT 10SM OVC013 08/06 A2980 RMK AO2 T00770055
KGDJ 132355Z AUTO 29004KT 10SM OVC015 08/06 A2980 RMK AO2 LTG DSNT NE T00770056 10162 20077
KGDJ 132335Z AUTO 32007KT 10SM OVC013 08/06 A2978 RMK AO2 T00780057
KGDJ 132315Z AUTO 33007KT 10SM OVC013 08/06 A2978 RMK AO2 LTG DSNT NE T00800057
KGDJ 132255Z AUTO 29006KT 10SM -DZ OVC011 08/06 A2979 RMK AO2 T00810058
KGDJ 132235Z AUTO 32011KT 7SM DZ OVC011 09/06 A2977 RMK AO2 LTG DSNT N T00850060
KGDJ 132215Z AUTO 28007KT 10SM OVC011 09/06 A2977 RMK AO2 LTG DSNT NE T00880060
KGDJ 132155Z AUTO 27007G14KT 10SM OVC011 09/06 A2976 RMK AO2 LTG DSNT N AND NE T00900062
KGDJ 132135Z AUTO 30009G12KT 10SM OVC011 09/07 A2974 RMK AO2 LTG DSNT N AND NE T00920065
KGDJ 132115Z AUTO 30011KT 10SM OVC011 10/07 A2973 RMK AO2 LTG DSNT N THRU E T00950067
KGDJ 132055Z AUTO 29012G18KT 10SM OVC011 10/07 A2972 RMK AO2 LTG DSNT N AND NE T01020070
KGDJ 132035Z AUTO 28015KT 10SM VCTS BKN015 OVC022 12/08 A2970 RMK AO2 LTG DSNT N AND NE T01180078
KGDJ 132015Z AUTO 28009G14KT 10SM BKN027 OVC033 15/09 A2968 RMK AO2 LTG DSNT N AND NE T01510092
KGDJ 131955Z AUTO 29006KT 10SM BKN028 OVC039 15/09 A2968 RMK AO2 LTG DSNT N AND NE T01500088
KGDJ 131935Z AUTO 27011KT 10SM BKN030 BKN039 OVC110 16/09 A2967 RMK AO2 LTG DSNT N AND NE T01570091
KGDJ 131915Z AUTO 27007KT 10SM OVC032 16/09 A2968 RMK AO2 LTG DSNT N AND NE T01550091
KGDJ 131855Z AUTO 28010KT 10SM OVC034 16/09 A2969 RMK AO2 LTG DSNT N T01600093
KGDJ 131835Z AUTO 27009KT 10SM -DZ OVC034 16/09 A2969 RMK AO2 T01590093
KGDJ 131815Z AUTO 25006KT 10SM -RA OVC034 16/09 A2970 RMK AO2 LTG DSNT N T01580092
KGDJ 131755Z AUTO 24005KT 10SM SCT028 OVC034 16/09 A2970 RMK AO2 LTG DSNT N 60001 T01630090 10166 20135
KGDJ 131735Z AUTO 24006KT 10SM BKN032 OVC090 16/10 A2970 RMK AO2 T01610100
KGDJ 131715Z AUTO 22005KT 10SM OVC028 16/10 A2971 RMK AO2 T01610102
KGDJ 131655Z AUTO 24006KT 10SM OVC028 16/10 A2972 RMK AO2 LTG DSNT N AND NE T01610104
KGDJ 131635Z AUTO 21004KT 10SM SCT021 BKN028 OVC095 16/11 A2972 RMK AO2 T01600107
KGDJ 131615Z AUTO 20005KT 10SM BKN022 BKN027 BKN095 16/11 A2972 RMK AO2 T01600110
KGDJ 131555Z AUTO 19007KT 10SM BKN020 16/12 A2972 RMK AO2 T01610117
KGDJ 131535Z AUTO 17005KT 10SM SCT018 16/12 A2972 RMK AO2 T01570119
KGDJ 131515Z AUTO 12006KT 10SM CLR 16/13 A2970 RMK AO2 LTG DSNT NE T01550127
KGDJ 131455Z AUTO 14005KT 10SM CLR 15/13 A2972 RMK AO2 60001 T01460125
KGDJ 131435Z AUTO 14005KT 10SM CLR 14/12 A2970 RMK AO2 T01390121
KGDJ 131415Z AUTO 13005KT 10SM SCT110 14/12 A2969 RMK AO2 T01360117
KGDJ 131355Z AUTO 11004KT 10SM SCT090 SCT110 14/12 A2970 RMK AO2 T01350115
KGDJ 131335Z AUTO 15004KT 10SM OVC090 14/12 A2968 RMK AO2 LTG DSNT NE T01410117
KGDJ 131315Z AUTO 14006KT 10SM -RA OVC090 14/12 A2968 RMK AO2 T01410117
KGDJ 131255Z AUTO 15005KT 10SM RA BKN090 BKN120 14/12 A2967 RMK AO2 P0001 T01420118
KGDJ 131235Z AUTO 17005KT 10SM SCT090 OVC120 14/12 A2967 RMK AO2 T01420117
KGDJ 131215Z AUTO 18005KT 10SM BKN100 OVC120 14/12 A2966 RMK AO2 T01420120
KGDJ 131155Z AUTO 15007KT 10SM SCT100 OVC120 14/12 A2966 RMK AO2 7//// T01440121 10157 20143
KGDJ 131135Z AUTO 15007KT 10SM BKN100 OVC120 15/12 A2966 RMK AO2 T01460124
KGDJ 131115Z AUTO 15005KT 10SM BKN095 OVC110 15/13 A2967 RMK AO2 T01460125
KGDJ 131055Z AUTO 14004KT 10SM BKN120 15/13 A2968 RMK AO2 LTG DSNT N T01460125
KGDJ 131035Z AUTO 15006KT 10SM SCT100 15/13 A2968 RMK AO2 LTG DSNT N T01480126
KGDJ 131015Z AUTO 14007KT 10SM SCT100 15/13 A2969 RMK AO2 LTG DSNT NE T01500127
KGDJ 130955Z AUTO 14005KT 10SM SCT016 SCT100 15/13 A2970 RMK AO2 LTG DSNT NE T01510129
KGDJ 130935Z AUTO 14004KT 10SM BKN016 OVC110 15/13 A2972 RMK AO2 LTG DSNT NE T01500128
KGDJ 130915Z AUTO 12005KT 10SM VCTS BKN016 OVC120 15/13 A2972 RMK AO2 LTG DSNT N THRU E T01490125
KGDJ 130855Z AUTO 11005KT 10SM SCT018 OVC110 16/13 A2974 RMK AO2 LTG DSNT NW THRU NE T01550126
KGDJ 130835Z AUTO 14006KT 10SM SCT090 OVC110 16/13 A2974 RMK AO2 LTG DSNT E T01560125
KGDJ 130815Z AUTO 14005KT 10SM VCTS SCT090 BKN120 16/12 A2975 RMK AO2 LTG DSNT NW T01550123
KGDJ 130755Z AUTO 15007KT 10SM SCT120 15/12 A2975 RMK AO2 LTG DSNT NW T01520122
KGDJ 130735Z AUTO 16007KT 10SM CLR 15/12 A2976 RMK AO2 LTG DSNT NW T01510120